sensor_id;sensor_type;location;lat;lon;timestamp;temperature;humidity
55719;DHT22;41623;46.104;19.656;2023-08-06T00:01:31;691.80;1536.00
55719;DHT22;41623;46.104;19.656;2023-08-06T00:03:57;691.80;1536.00
55719;DHT22;41623;46.104;19.656;2023-08-06T00:06:24;691.70;1561.60
55719;DHT22;41623;46.104;19.656;2023-08-06T00:08:50;691.60;1561.60
55719;DHT22;41623;46.104;19.656;2023-08-06T00:11:15;691.50;1536.00
55719;DHT22;41623;46.104;19.656;2023-08-06T00:13:41;691.50;1536.00
55719;DHT22;41623;46.104;19.656;2023-08-06T00:16:10;691.50;1536.00
55719;DHT22;41623;46.104;19.656;2023-08-06T00:18:36;691.50;1536.00
55719;DHT22;41623;46.104;19.656;2023-08-06T00:21:02;691.50;1561.60
55719;DHT22;41623;46.104;19.656;2023-08-06T00:23:28;691.50;1536.00
55719;DHT22;41623;46.104;19.656;2023-08-06T00:25:54;691.50;1536.00
55719;DHT22;41623;46.104;19.656;2023-08-06T00:28:19;691.60;1510.40
55719;DHT22;41623;46.104;19.656;2023-08-06T00:30:45;691.60;1510.40
55719;DHT22;41623;46.104;19.656;2023-08-06T00:33:11;691.50;1510.40
55719;DHT22;41623;46.104;19.656;2023-08-06T00:35:37;691.50;1536.00
55719;DHT22;41623;46.104;19.656;2023-08-06T00:38:03;691.50;1510.40
55719;DHT22;41623;46.104;19.656;2023-08-06T00:40:28;691.40;1510.40
55719;DHT22;41623;46.104;19.656;2023-08-06T00:42:55;691.40;1510.40
55719;DHT22;41623;46.104;19.656;2023-08-06T00:45:21;691.40;1510.40
55719;DHT22;41623;46.104;19.656;2023-08-06T00:47:47;691.50;1510.40
55719;DHT22;41623;46.104;19.656;2023-08-06T00:50:13;691.50;1484.80
55719;DHT22;41623;46.104;19.656;2023-08-06T00:52:40;691.50;1510.40
55719;DHT22;41623;46.104;19.656;2023-08-06T00:55:06;691.50;1510.40
55719;DHT22;41623;46.104;19.656;2023-08-06T00:57:32;691.60;1510.40
55719;DHT22;41623;46.104;19.656;2023-08-06T00:59:58;691.60;1510.40
55719;DHT22;41623;46.104;19.656;2023-08-06T01:02:23;691.60;1510.40
55719;DHT22;41623;46.104;19.656;2023-08-06T01:04:49;691.60;1510.40
55719;DHT22;41623;46.104;19.656;2023-08-06T01:07:29;691.60;1510.40
55719;DHT22;41623;46.104;19.656;2023-08-06T01:12:56;691.60;1510.40
55719;DHT22;41623;46.104;19.656;2023-08-06T01:15:29;691.60;1510.40
55719;DHT22;41623;46.104;19.656;2023-08-06T01:17:57;691.60;1510.40
55719;DHT22;41623;46.104;19.656;2023-08-06T01:20:31;691.60;1510.40
55719;DHT22;41623;46.104;19.656;2023-08-06T01:22:57;691.60;1510.40
55719;DHT22;41623;46.104;19.656;2023-08-06T01:25:38;691.60;1510.40
55719;DHT22;41623;46.104;19.656;2023-08-06T01:28:16;691.60;1510.40
55719;DHT22;41623;46.104;19.656;2023-08-06T01:30:45;691.60;1484.80
55719;DHT22;41623;46.104;19.656;2023-08-06T01:33:17;691.60;1484.80
55719;DHT22;41623;46.104;19.656;2023-08-06T01:35:45;691.60;1484.80
55719;DHT22;41623;46.104;19.656;2023-08-06T01:38:11;691.60;1510.40
55719;DHT22;41623;46.104;19.656;2023-08-06T01:40:37;691.60;1484.80
55719;DHT22;41623;46.104;19.656;2023-08-06T01:43:03;691.60;1510.40
55719;DHT22;41623;46.104;19.656;2023-08-06T01:45:28;691.60;1484.80
55719;DHT22;41623;46.104;19.656;2023-08-06T01:47:54;691.60;1484.80
55719;DHT22;41623;46.104;19.656;2023-08-06T01:50:20;691.60;1484.80
55719;DHT22;41623;46.104;19.656;2023-08-06T01:52:45;691.60;1484.80
55719;DHT22;41623;46.104;19.656;2023-08-06T01:55:11;691.60;1484.80
55719;DHT22;41623;46.104;19.656;2023-08-06T01:57:37;691.60;1510.40
55719;DHT22;41623;46.104;19.656;2023-08-06T02:00:03;691.60;1484.80
55719;DHT22;41623;46.104;19.656;2023-08-06T02:02:29;691.60;1484.80
55719;DHT22;41623;46.104;19.656;2023-08-06T02:04:54;691.60;1510.40
55719;DHT22;41623;46.104;19.656;2023-08-06T02:07:20;691.60;1484.80
55719;DHT22;41623;46.104;19.656;2023-08-06T02:09:46;691.60;1484.80
55719;DHT22;41623;46.104;19.656;2023-08-06T02:12:11;691.60;1484.80
55719;DHT22;41623;46.104;19.656;2023-08-06T02:14:37;691.60;1484.80
55719;DHT22;41623;46.104;19.656;2023-08-06T02:17:03;691.60;1484.80
55719;DHT22;41623;46.104;19.656;2023-08-06T02:19:28;691.50;1484.80
55719;DHT22;41623;46.104;19.656;2023-08-06T02:21:54;691.50;1484.80
55719;DHT22;41623;46.104;19.656;2023-08-06T02:24:20;691.50;1510.40
55719;DHT22;41623;46.104;19.656;2023-08-06T02:26:45;691.50;1510.40
55719;DHT22;41623;46.104;19.656;2023-08-06T02:29:12;691.50;1510.40
55719;DHT22;41623;46.104;19.656;2023-08-06T02:31:37;691.40;1510.40
55719;DHT22;41623;46.104;19.656;2023-08-06T02:34:03;691.40;1510.40
55719;DHT22;41623;46.104;19.656;2023-08-06T02:36:29;691.40;1510.40
55719;DHT22;41623;46.104;19.656;2023-08-06T02:38:55;691.30;1510.40
55719;DHT22;41623;46.104;19.656;2023-08-06T02:41:21;691.30;1536.00
55719;DHT22;41623;46.104;19.656;2023-08-06T02:43:46;691.30;1510.40
55719;DHT22;41623;46.104;19.656;2023-08-06T02:46:12;691.30;1536.00
55719;DHT22;41623;46.104;19.656;2023-08-06T02:48:38;691.20;1510.40
55719;DHT22;41623;46.104;19.656;2023-08-06T02:51:04;691.30;1536.00
55719;DHT22;41623;46.104;19.656;2023-08-06T02:53:29;691.20;1536.00
55719;DHT22;41623;46.104;19.656;2023-08-06T02:55:55;691.30;1536.00
55719;DHT22;41623;46.104;19.656;2023-08-06T02:58:21;691.30;1510.40
55719;DHT22;41623;46.104;19.656;2023-08-06T03:03:25;691.40;1510.40
55719;DHT22;41623;46.104;19.656;2023-08-06T03:05:52;691.40;1510.40
55719;DHT22;41623;46.104;19.656;2023-08-06T03:08:18;691.40;1510.40
55719;DHT22;41623;46.104;19.656;2023-08-06T03:10:48;691.30;1510.40
55719;DHT22;41623;46.104;19.656;2023-08-06T03:13:14;691.40;1510.40
55719;DHT22;41623;46.104;19.656;2023-08-06T03:15:40;691.40;1510.40
55719;DHT22;41623;46.104;19.656;2023-08-06T03:18:05;691.40;1510.40
55719;DHT22;41623;46.104;19.656;2023-08-06T03:20:32;691.40;1510.40
55719;DHT22;41623;46.104;19.656;2023-08-06T03:22:58;691.40;1484.80
55719;DHT22;41623;46.104;19.656;2023-08-06T03:25:24;691.40;1510.40
55719;DHT22;41623;46.104;19.656;2023-08-06T03:27:49;691.40;1484.80
55719;DHT22;41623;46.104;19.656;2023-08-06T03:30:15;691.40;1484.80
55719;DHT22;41623;46.104;19.656;2023-08-06T03:32:41;691.40;1510.40
55719;DHT22;41623;46.104;19.656;2023-08-06T03:35:07;691.50;1484.80
55719;DHT22;41623;46.104;19.656;2023-08-06T03:37:33;691.50;1510.40
55719;DHT22;41623;46.104;19.656;2023-08-06T03:39:58;691.50;1510.40
55719;DHT22;41623;46.104;19.656;2023-08-06T03:42:24;691.60;1510.40
55719;DHT22;41623;46.104;19.656;2023-08-06T03:44:50;691.60;1510.40
55719;DHT22;41623;46.104;19.656;2023-08-06T03:47:15;691.50;1510.40
55719;DHT22;41623;46.104;19.656;2023-08-06T03:49:41;691.50;1510.40
55719;DHT22;41623;46.104;19.656;2023-08-06T03:52:07;691.50;1484.80
55719;DHT22;41623;46.104;19.656;2023-08-06T03:54:33;691.50;1510.40
55719;DHT22;41623;46.104;19.656;2023-08-06T03:56:58;691.50;1484.80
55719;DHT22;41623;46.104;19.656;2023-08-06T03:59:24;691.50;1510.40
55719;DHT22;41623;46.104;19.656;2023-08-06T04:01:50;691.50;1484.80
55719;DHT22;41623;46.104;19.656;2023-08-06T04:04:15;691.50;1510.40
55719;DHT22;41623;46.104;19.656;2023-08-06T04:06:41;691.50;1510.40
55719;DHT22;41623;46.104;19.656;2023-08-06T04:09:07;691.50;1510.40
55719;DHT22;41623;46.104;19.656;2023-08-06T04:11:32;691.50;1510.40
55719;DHT22;41623;46.104;19.656;2023-08-06T04:13:58;691.40;1510.40
55719;DHT22;41623;46.104;19.656;2023-08-06T04:16:24;691.30;1510.40
55719;DHT22;41623;46.104;19.656;2023-08-06T04:18:51;691.30;1536.00
55719;DHT22;41623;46.104;19.656;2023-08-06T04:21:19;691.30;1510.40
55719;DHT22;41623;46.104;19.656;2023-08-06T04:23:44;691.30;1536.00
55719;DHT22;41623;46.104;19.656;2023-08-06T04:26:10;691.30;1510.40
55719;DHT22;41623;46.104;19.656;2023-08-06T04:28:36;691.20;1536.00
55719;DHT22;41623;46.104;19.656;2023-08-06T04:31:02;691.20;1536.00
55719;DHT22;41623;46.104;19.656;2023-08-06T04:33:27;691.20;1536.00
55719;DHT22;41623;46.104;19.656;2023-08-06T04:35:57;691.20;1536.00
55719;DHT22;41623;46.104;19.656;2023-08-06T04:38:25;666.50;1536.00
55719;DHT22;41623;46.104;19.656;2023-08-06T04:40:52;666.50;1536.00
55719;DHT22;41623;46.104;19.656;2023-08-06T04:43:17;691.20;1536.00
55719;DHT22;41623;46.104;19.656;2023-08-06T04:45:50;666.50;1536.00
55719;DHT22;41623;46.104;19.656;2023-08-06T04:48:16;666.50;1561.60
55719;DHT22;41623;46.104;19.656;2023-08-06T04:50:49;666.40;1536.00
55719;DHT22;41623;46.104;19.656;2023-08-06T04:53:15;666.40;1536.00
55719;DHT22;41623;46.104;19.656;2023-08-06T04:55:40;666.40;1536.00
55719;DHT22;41623;46.104;19.656;2023-08-06T04:58:06;666.40;1536.00
55719;DHT22;41623;46.104;19.656;2023-08-06T05:00:33;666.40;1561.60
55719;DHT22;41623;46.104;19.656;2023-08-06T05:10:27;666.50;1587.20
55719;DHT22;41623;46.104;19.656;2023-08-06T05:12:53;666.30;1561.60
55719;DHT22;41623;46.104;19.656;2023-08-06T05:15:19;666.30;1536.00
55719;DHT22;41623;46.104;19.656;2023-08-06T05:17:45;666.20;1561.60
55719;DHT22;41623;46.104;19.656;2023-08-06T05:20:11;666.20;1561.60
55719;DHT22;41623;46.104;19.656;2023-08-06T05:22:37;666.20;1561.60
55719;DHT22;41623;46.104;19.656;2023-08-06T05:25:02;666.20;1561.60
55719;DHT22;41623;46.104;19.656;2023-08-06T05:27:28;666.10;1587.20
55719;DHT22;41623;46.104;19.656;2023-08-06T05:29:57;665.90;1587.20
55719;DHT22;41623;46.104;19.656;2023-08-06T05:32:23;665.70;1612.80
55719;DHT22;41623;46.104;19.656;2023-08-06T11:20:39;614.90;1459.20
55719;DHT22;41623;46.104;19.656;2023-08-06T15:12:56;589.40;1587.20
55719;DHT22;41623;46.104;19.656;2023-08-06T15:15:22;589.30;1587.20
55719;DHT22;41623;46.104;19.656;2023-08-06T15:17:48;589.30;1587.20
55719;DHT22;41623;46.104;19.656;2023-08-06T15:20:14;589.30;1587.20
55719;DHT22;41623;46.104;19.656;2023-08-06T15:22:39;589.30;1587.20
55719;DHT22;41623;46.104;19.656;2023-08-06T15:25:05;589.20;1612.80
55719;DHT22;41623;46.104;19.656;2023-08-06T15:27:31;589.20;1612.80
55719;DHT22;41623;46.104;19.656;2023-08-06T15:29:58;589.30;1612.80
55719;DHT22;41623;46.104;19.656;2023-08-06T15:32:24;589.30;1612.80
55719;DHT22;41623;46.104;19.656;2023-08-06T15:34:50;589.20;1587.20
55719;DHT22;41623;46.104;19.656;2023-08-06T15:37:16;589.20;1561.60
55719;DHT22;41623;46.104;19.656;2023-08-06T15:39:42;589.20;1561.60
55719;DHT22;41623;46.104;19.656;2023-08-06T15:42:08;589.30;1561.60
55719;DHT22;41623;46.104;19.656;2023-08-06T17:22:30;614.90;1459.20
55719;DHT22;41623;46.104;19.656;2023-08-06T17:24:56;614.70;1484.80
55719;DHT22;41623;46.104;19.656;2023-08-06T17:27:21;614.70;1484.80
55719;DHT22;41623;46.104;19.656;2023-08-06T17:29:49;614.70;1510.40
55719;DHT22;41623;46.104;19.656;2023-08-06T17:32:14;614.70;1510.40
55719;DHT22;41623;46.104;19.656;2023-08-06T17:34:40;614.70;1484.80
55719;DHT22;41623;46.104;19.656;2023-08-06T17:37:06;614.80;1484.80
55719;DHT22;41623;46.104;19.656;2023-08-06T19:36:50;640.50;1459.20
55719;DHT22;41623;46.104;19.656;2023-08-06T19:39:16;640.20;1459.20
55719;DHT22;41623;46.104;19.656;2023-08-06T19:41:42;640.10;1459.20
55719;DHT22;41623;46.104;19.656;2023-08-06T19:44:07;640.10;1459.20
55719;DHT22;41623;46.104;19.656;2023-08-06T19:46:33;640.10;1459.20
55719;DHT22;41623;46.104;19.656;2023-08-06T19:48:59;640.10;1484.80
55719;DHT22;41623;46.104;19.656;2023-08-06T19:51:26;640.10;1484.80
55719;DHT22;41623;46.104;19.656;2023-08-06T19:53:54;640.10;1484.80
55719;DHT22;41623;46.104;19.656;2023-08-06T19:56:22;640.10;1484.80
55719;DHT22;41623;46.104;19.656;2023-08-06T19:58:47;640.10;1484.80
55719;DHT22;41623;46.104;19.656;2023-08-06T20:01:15;640.10;1484.80
55719;DHT22;41623;46.104;19.656;2023-08-06T20:03:40;640.10;1459.20
55719;DHT22;41623;46.104;19.656;2023-08-06T20:06:09;640.10;1459.20
55719;DHT22;41623;46.104;19.656;2023-08-06T20:08:36;640.10;1484.80
55719;DHT22;41623;46.104;19.656;2023-08-06T20:11:02;640.10;1459.20
55719;DHT22;41623;46.104;19.656;2023-08-06T20:13:28;640.10;1459.20
55719;DHT22;41623;46.104;19.656;2023-08-06T20:15:54;640.10;1459.20
55719;DHT22;41623;46.104;19.656;2023-08-06T20:18:20;640.10;1484.80
55719;DHT22;41623;46.104;19.656;2023-08-06T20:20:54;640.10;1459.20
55719;DHT22;41623;46.104;19.656;2023-08-06T20:23:20;640.10;1459.20
55719;DHT22;41623;46.104;19.656;2023-08-06T20:25:46;640.10;1484.80
55719;DHT22;41623;46.104;19.656;2023-08-06T20:28:13;640.10;1459.20
55719;DHT22;41623;46.104;19.656;2023-08-06T20:30:41;640.10;1459.20
55719;DHT22;41623;46.104;19.656;2023-08-06T20:33:07;640.10;1459.20
55719;DHT22;41623;46.104;19.656;2023-08-06T20:35:33;640.10;1459.20
55719;DHT22;41623;46.104;19.656;2023-08-06T20:38:02;640.10;1484.80
55719;DHT22;41623;46.104;19.656;2023-08-06T20:40:29;640.10;1484.80
55719;DHT22;41623;46.104;19.656;2023-08-06T20:42:54;640.10;1484.80
55719;DHT22;41623;46.104;19.656;2023-08-06T20:45:20;640.10;1484.80
55719;DHT22;41623;46.104;19.656;2023-08-06T20:47:46;640.20;1459.20
55719;DHT22;41623;46.104;19.656;2023-08-06T20:50:11;640.20;1484.80
55719;DHT22;41623;46.104;19.656;2023-08-06T20:52:37;640.20;1459.20
55719;DHT22;41623;46.104;19.656;2023-08-06T20:55:03;640.20;1459.20
55719;DHT22;41623;46.104;19.656;2023-08-06T20:57:29;640.20;1484.80
55719;DHT22;41623;46.104;19.656;2023-08-06T20:59:54;640.20;1484.80
55719;DHT22;41623;46.104;19.656;2023-08-06T21:02:20;640.20;1459.20
55719;DHT22;41623;46.104;19.656;2023-08-06T21:04:47;640.20;1484.80
55719;DHT22;41623;46.104;19.656;2023-08-06T21:07:15;640.20;1484.80
55719;DHT22;41623;46.104;19.656;2023-08-06T21:09:40;640.20;1459.20
55719;DHT22;41623;46.104;19.656;2023-08-06T21:12:07;640.20;1484.80
55719;DHT22;41623;46.104;19.656;2023-08-06T21:14:32;640.20;1459.20
55719;DHT22;41623;46.104;19.656;2023-08-06T21:16:58;640.20;1484.80
55719;DHT22;41623;46.104;19.656;2023-08-06T21:19:24;640.20;1484.80
55719;DHT22;41623;46.104;19.656;2023-08-06T21:21:49;640.20;1459.20
55719;DHT22;41623;46.104;19.656;2023-08-06T21:24:15;640.20;1484.80
55719;DHT22;41623;46.104;19.656;2023-08-06T21:26:41;640.20;1484.80
55719;DHT22;41623;46.104;19.656;2023-08-06T21:29:07;640.10;1459.20
55719;DHT22;41623;46.104;19.656;2023-08-06T21:31:32;640.10;1484.80
55719;DHT22;41623;46.104;19.656;2023-08-06T21:33:58;640.10;1484.80
55719;DHT22;41623;46.104;19.656;2023-08-06T21:36:24;640.10;1484.80
55719;DHT22;41623;46.104;19.656;2023-08-06T21:38:51;640.10;1484.80
55719;DHT22;41623;46.104;19.656;2023-08-06T21:41:17;640.10;1484.80
55719;DHT22;41623;46.104;19.656;2023-08-06T21:43:44;640.20;1484.80
55719;DHT22;41623;46.104;19.656;2023-08-06T21:46:15;640.20;1484.80
55719;DHT22;41623;46.104;19.656;2023-08-06T21:48:43;640.10;1484.80
55719;DHT22;41623;46.104;19.656;2023-08-06T21:51:16;640.10;1484.80
55719;DHT22;41623;46.104;19.656;2023-08-06T21:53:42;640.10;1484.80
55719;DHT22;41623;46.104;19.656;2023-08-06T21:56:10;640.10;1484.80
55719;DHT22;41623;46.104;19.656;2023-08-06T21:58:37;640.10;1484.80
55719;DHT22;41623;46.104;19.656;2023-08-06T22:01:04;640.20;1459.20
55719;DHT22;41623;46.104;19.656;2023-08-06T22:03:31;640.10;1484.80
55719;DHT22;41623;46.104;19.656;2023-08-06T22:05:56;640.10;1459.20
55719;DHT22;41623;46.104;19.656;2023-08-06T22:08:22;640.20;1459.20
55719;DHT22;41623;46.104;19.656;2023-08-06T22:10:48;640.10;1484.80
55719;DHT22;41623;46.104;19.656;2023-08-06T22:13:15;640.10;1484.80
55719;DHT22;41623;46.104;19.656;2023-08-06T22:15:41;640.10;1484.80
55719;DHT22;41623;46.104;19.656;2023-08-06T22:18:07;640.10;1484.80
55719;DHT22;41623;46.104;19.656;2023-08-06T22:20:33;640.10;1484.80
55719;DHT22;41623;46.104;19.656;2023-08-06T22:22:59;640.10;1459.20
55719;DHT22;41623;46.104;19.656;2023-08-06T22:25:25;640.00;1459.20
55719;DHT22;41623;46.104;19.656;2023-08-06T22:27:51;640.00;1484.80
55719;DHT22;41623;46.104;19.656;2023-08-06T22:30:17;640.00;1484.80
55719;DHT22;41623;46.104;19.656;2023-08-06T22:32:43;640.00;1459.20
55719;DHT22;41623;46.104;19.656;2023-08-06T22:35:09;615.30;1459.20
55719;DHT22;41623;46.104;19.656;2023-08-06T22:37:35;640.00;1459.20
55719;DHT22;41623;46.104;19.656;2023-08-06T22:40:00;615.30;1484.80
55719;DHT22;41623;46.104;19.656;2023-08-06T22:42:28;615.30;1459.20
55719;DHT22;41623;46.104;19.656;2023-08-06T22:44:54;615.30;1484.80
55719;DHT22;41623;46.104;19.656;2023-08-06T22:47:20;615.30;1459.20
55719;DHT22;41623;46.104;19.656;2023-08-06T22:49:47;615.30;1459.20
55719;DHT22;41623;46.104;19.656;2023-08-06T22:52:13;615.30;1459.20
55719;DHT22;41623;46.104;19.656;2023-08-06T22:54:39;615.20;1459.20
55719;DHT22;41623;46.104;19.656;2023-08-06T22:57:08;615.20;1459.20
55719;DHT22;41623;46.104;19.656;2023-08-06T22:59:34;615.30;1484.80
55719;DHT22;41623;46.104;19.656;2023-08-06T23:02:00;615.30;1484.80
55719;DHT22;41623;46.104;19.656;2023-08-06T23:04:26;615.30;1459.20
55719;DHT22;41623;46.104;19.656;2023-08-06T23:06:52;615.20;1433.60
55719;DHT22;41623;46.104;19.656;2023-08-06T23:09:18;615.20;1459.20
55719;DHT22;41623;46.104;19.656;2023-08-06T23:11:44;615.30;1459.20
55719;DHT22;41623;46.104;19.656;2023-08-06T23:14:09;615.20;1433.60
55719;DHT22;41623;46.104;19.656;2023-08-06T23:16:35;615.10;1433.60
55719;DHT22;41623;46.104;19.656;2023-08-06T23:19:01;615.20;1459.20
55719;DHT22;41623;46.104;19.656;2023-08-06T23:21:27;615.10;1459.20
55719;DHT22;41623;46.104;19.656;2023-08-06T23:23:52;615.10;1459.20
55719;DHT22;41623;46.104;19.656;2023-08-06T23:26:18;615.00;1433.60
55719;DHT22;41623;46.104;19.656;2023-08-06T23:28:44;615.00;1433.60
55719;DHT22;41623;46.104;19.656;2023-08-06T23:31:13;614.80;1459.20
55719;DHT22;41623;46.104;19.656;2023-08-06T23:33:39;615.00;1484.80
55719;DHT22;41623;46.104;19.656;2023-08-06T23:36:05;615.00;1484.80
55719;DHT22;41623;46.104;19.656;2023-08-06T23:38:30;614.90;1433.60
55719;DHT22;41623;46.104;19.656;2023-08-06T23:40:56;614.80;1433.60
55719;DHT22;41623;46.104;19.656;2023-08-06T23:55:33;615.20;1484.80
